Data for 11/16/2017

Time Sea-Level Adjusted Pressure Absolute Pressure Temperature Relative Humidity Dew Point   
(mb) (inHg) (mb) (inHg) (C) (F) (%) (C) (F)
00:05 1007 29.74 836 24.69 4.7 40.5 60 -2.4 27.6
00:10 1007 29.74 836 24.69 4.7 40.5 60 -2.4 27.6
00:15 1007 29.74 836 24.69 4.7 40.5 61 -2.2 28
00:20 1006 29.71 836 24.69 4.6 40.2 61 -2.4 27.7
00:25 1006 29.71 835 24.66 4.7 40.4 59 -2.7 27.2
00:30 1006 29.71 835 24.66 5 40.9 59 -2.3 27.8
00:35 1006 29.71 835 24.66 4.8 40.6 60 -2.4 27.6
00:40 1006 29.71 835 24.66 4.8 40.6 60 -2.2 28
00:45 1006 29.71 835 24.66 4.7 40.5 60 -2.4 27.7
00:50 1006 29.71 835 24.66 4.9 40.8 60 -2.2 28
00:55 1006 29.71 835 24.66 4.8 40.6 60 -2.3 27.9
01:00 1006 29.71 835 24.66 5 40.9 59 -2.3 27.8
01:05 1006 29.71 835 24.66 5.2 41.4 58 -2.4 27.6
01:10 1006 29.71 835 24.66 5.7 42.3 55 -2.6 27.4
01:15 1006 29.71 835 24.66 5.8 42.5 55 -2.4 27.6
01:20 1006 29.71 835 24.66 5.9 42.5 55 -2.4 27.6
01:25 1006 29.71 835 24.66 6 42.8 54 -2.5 27.5
01:30 1005 29.68 835 24.66 6.3 43.3 53 -2.5 27.5
01:35 1005 29.68 835 24.66 6.6 43.8 52 -2.6 27.3
01:40 1005 29.68 835 24.66 6.9 44.3 52 -2.2 28
01:45 1005 29.68 835 24.66 6.7 44 53 -2.1 28.2
01:50 1005 29.68 834 24.63 6.3 43.4 53 -2.5 27.4
01:55 1005 29.68 835 24.66 6.9 44.3 52 -2.3 27.9
02:00 1005 29.68 835 24.66 7 44.6 53 -1.9 28.6
02:05 1005 29.68 835 24.66 6.7 44.1 54 -1.8 28.7
02:10 1005 29.68 835 24.66 6.7 44 54 -2 28.3
02:15 1005 29.68 835 24.66 7.1 44.9 51 -2.4 27.7
02:20 1005 29.68 834 24.63 7.7 45.9 50 -2.1 28.2
02:25 1005 29.68 834 24.63 7.8 46.1 50 -2 28.5
02:30 1005 29.68 834 24.63 7.8 46 50 -2.1 28.3
02:35 1005 29.68 834 24.63 7.8 46 50 -2.1 28.3
02:40 1005 29.68 834 24.63 7.7 45.8 50 -2.2 28.1
02:45 1005 29.68 834 24.63 7.8 46.1 49 -2.1 28.1
02:50 1005 29.68 834 24.63 7.1 44.9 54 -1.4 29.5
02:55 1005 29.68 834 24.63 5.9 42.5 58 -1.7 28.9
03:00 1005 29.68 834 24.63 5.4 41.6 60 -1.7 29
03:05 1005 29.68 834 24.63 5.1 41.3 61 -1.8 28.7
03:10 1005 29.68 834 24.63 5.1 41.3 62 -1.6 29.1
03:15 1005 29.68 834 24.63 5.1 41.1 59 -2.2 28
03:20 1005 29.68 834 24.63 5.6 42 59 -1.7 28.9
03:25 1005 29.68 834 24.63 5.5 41.9 59 -2 28.5
03:30 1005 29.68 834 24.63 5.5 42 59 -1.8 28.8
03:35 1004 29.65 834 24.63 5.5 41.9 57 -2.2 28
03:40 1004 29.65 834 24.63 6 42.8 57 -1.8 28.7
03:45 1004 29.65 834 24.63 6.1 43 56 -1.9 28.5
03:50 1004 29.65 834 24.63 6.1 43.1 57 -1.8 28.8
03:55 1005 29.68 834 24.63 5.7 42.2 60 -1.4 29.4
04:00 1005 29.68 834 24.63 5.3 41.6 62 -1.4 29.5
04:05 1005 29.68 834 24.63 5 41 61 -1.8 28.7
04:10 1005 29.68 834 24.63 5.3 41.5 60 -1.9 28.5
04:15 1004 29.65 834 24.63 5.8 42.4 57 -2.1 28.3
04:20 1004 29.65 834 24.63 6.3 43.3 55 -2 28.5
04:25 1004 29.65 834 24.63 6.6 43.9 54 -2 28.4
04:30 1004 29.65 834 24.63 6.8 44.3 54 -1.9 28.6
04:35 1004 29.65 833 24.6 7 44.6 52 -2 28.3
04:40 1004 29.65 833 24.6 6.7 44.1 55 -1.6 29
04:45 1004 29.65 833 24.6 6.3 43.3 56 -1.8 28.8
04:50 1004 29.65 833 24.6 6.1 43 57 -1.8 28.7
04:55 1004 29.65 833 24.6 6 42.7 58 -1.7 29
05:00 1004 29.65 833 24.6 5.7 42.2 59 -1.7 28.9
05:05 1004 29.65 833 24.6 6.4 43.4 52 -2.7 27.2
05:10 1004 29.65 833 24.6 7.2 44.9 53 -1.7 29
05:15 1004 29.65 833 24.6 6.7 44.1 54 -2 28.5
05:20 1004 29.65 833 24.6 7.1 44.8 51 -2.3 27.9
05:25 1004 29.65 833 24.6 7.4 45.3 52 -1.8 28.8
05:30 1004 29.65 833 24.6 7.1 44.8 52 -2.1 28.2
05:35 1004 29.65 833 24.6 7.5 45.4 53 -1.5 29.3
05:40 1004 29.65 833 24.6 6.8 44.3 53 -2.1 28.2
05:45 1004 29.65 833 24.6 7.1 44.9 51 -2.2 28.1
05:50 1003 29.62 833 24.6 7.4 45.2 52 -1.9 28.6
05:55 1003 29.62 833 24.6 7.3 45.1 52 -1.9 28.6
06:00 1004 29.65 833 24.6 6.8 44.2 55 -1.5 29.3
06:05 1004 29.65 833 24.6 6 42.7 60 -1.3 29.7
06:10 1004 29.65 833 24.6 5.6 42.1 58 -2 28.4
06:15 1003 29.62 833 24.6 5.9 42.5 54 -2.6 27.3
06:20 1003 29.62 833 24.6 6.7 44.1 53 -2.2 28
06:25 1003 29.62 833 24.6 6.8 44.2 56 -1.5 29.3
06:30 1003 29.62 833 24.6 7.4 45.3 51 -2.1 28.3
06:35 1003 29.62 832 24.57 7.9 46.2 52 -1.2 29.8
06:40 1003 29.62 832 24.57 7.7 45.8 54 -1 30.2
06:45 1003 29.62 832 24.57 7.7 45.8 54 -1 30.2
06:50 1003 29.62 833 24.6 7.7 45.9 53 -1.3 29.7
06:55 1003 29.62 833 24.6 8 46.3 52 -1.3 29.7
07:00 1003 29.62 833 24.6 8.1 46.5 51 -1.4 29.4
07:05 1003 29.62 832 24.57 8.4 47.2 50 -1.4 29.5
07:10 1003 29.62 832 24.57 8.4 47.1 50 -1.4 29.5
07:15 1003 29.62 832 24.57 8.5 47.3 50 -1.4 29.5
07:20 1003 29.62 832 24.57 8.3 46.9 51 -1.2 29.8
07:25 1003 29.62 832 24.57 8.2 46.8 51 -1.3 29.6
07:30 1003 29.62 832 24.57 8.2 46.8 51 -1.3 29.7
07:35 1003 29.62 832 24.57 8.2 46.8 51 -1.3 29.7
07:40 1003 29.62 832 24.57 8.2 46.7 51 -1.4 29.5
07:45 1003 29.62 832 24.57 8.2 46.8 51 -1.4 29.5
07:50 1003 29.62 832 24.57 8.3 47 51 -1.2 29.8
07:55 1003 29.62 832 24.57 8.4 47 51 -1.1 30
08:00 1003 29.62 832 24.57 8.2 46.8 52 -1 30.3
08:05 1003 29.62 832 24.57 8.1 46.5 54 -0.8 30.6
08:10 1003 29.62 832 24.57 7.8 46.1 54 -0.9 30.4
08:15 1003 29.62 832 24.57 7.9 46.3 54 -0.8 30.5
08:20 1003 29.62 832 24.57 8.1 46.5 52 -1.2 29.8
08:25 1003 29.62 832 24.57 8.5 47.4 50 -1.2 29.8
08:30 1003 29.62 832 24.57 8.6 47.5 50 -1.1 30
08:35 1003 29.62 832 24.57 8.6 47.5 49 -1.4 29.5
08:40 1003 29.62 832 24.57 8.7 47.6 47 -2.1 28.3
08:45 1003 29.62 832 24.57 8.8 47.8 47 -1.9 28.6
08:50 1003 29.62 832 24.57 8.7 47.6 49 -1.6 29.2
08:55 1003 29.62 832 24.57 8.5 47.3 49 -1.5 29.3
09:00 1003 29.62 832 24.57 8.4 47.1 50 -1.3 29.7
09:05 1003 29.62 832 24.57 8.5 47.2 50 -1.4 29.5
09:10 1003 29.62 832 24.57 8.5 47.2 51 -1.1 30
09:15 1003 29.62 832 24.57 8.5 47.2 52 -0.9 30.4
09:20 1003 29.62 832 24.57 8.4 47.1 52 -0.8 30.6
09:25 1003 29.62 832 24.57 8.2 46.8 53 -0.7 30.8
09:30 1003 29.62 832 24.57 8.1 46.7 54 -0.6 30.9
09:35 1003 29.62 832 24.57 8.4 47.1 53 -0.5 31.1
09:40 1003 29.62 832 24.57 8.5 47.3 53 -0.5 31.2
09:45 1003 29.62 832 24.57 8.6 47.4 53 -0.4 31.3
09:50 1003 29.62 832 24.57 8.5 47.3 53 -0.4 31.3
09:55 1003 29.62 832 24.57 8.6 47.4 53 -0.4 31.3
10:00 1003 29.62 832 24.57 8.7 47.7 52 -0.4 31.2
10:05 1003 29.62 832 24.57 8.8 47.9 52 -0.3 31.4
10:10 1003 29.62 832 24.57 9 48.1 51 -0.5 31.1
10:15 1003 29.62 832 24.57 9.2 48.5 51 -0.3 31.4
10:20 1003 29.62 832 24.57 9.5 49 50 -0.5 31.1
10:25 1003 29.62 832 24.57 9.6 49.3 50 -0.2 31.6
10:30 1003 29.62 832 24.57 9.4 49 51 -0 31.9
10:35 1003 29.62 832 24.57 9 48.1 52 -0.3 31.5
10:40 1003 29.62 832 24.57 8.9 48.1 51 -0.6 30.8
10:45 1003 29.62 832 24.57 9 48.2 50 -0.7 30.7
10:50 1003 29.62 832 24.57 9.5 49.1 49 -0.6 30.9
10:55 1003 29.62 832 24.57 9.8 49.6 48 -0.6 30.9
11:00 1003 29.62 832 24.57 9.8 49.6 49 -0.3 31.5
11:05 1003 29.62 832 24.57 9.6 49.2 49 -0.6 31
11:10 1003 29.62 832 24.57 9.5 49.1 49 -0.5 31
11:15 1003 29.62 832 24.57 9.4 48.9 50 -0.5 31.1
11:20 1003 29.62 832 24.57 9.2 48.5 48 -1.2 29.9
11:25 1003 29.62 832 24.57 9 48.2 48 -1.5 29.3
11:30 1003 29.62 832 24.57 9 48.2 46 -1.9 28.5
11:35 1003 29.62 832 24.57 9 48.3 46 -1.8 28.7
11:40 1003 29.62 832 24.57 8.9 48 47 -1.7 29
11:45 1003 29.62 832 24.57 8.7 47.7 49 -1.5 29.4
11:50 1003 29.62 832 24.57 8.6 47.4 49 -1.4 29.5
11:55 1003 29.62 832 24.57 8.3 46.9 50 -1.4 29.4
12:00 1003 29.62 832 24.57 8 46.3 54 -0.8 30.5
12:05 1003 29.62 832 24.57 7.4 45.3 57 -0.6 30.8
12:10 1003 29.62 832 24.57 6.8 44.3 59 -0.6 30.9
12:15 1003 29.62 832 24.57 6.5 43.6 60 -0.8 30.6
12:20 1003 29.62 833 24.6 6.4 43.6 59 -0.9 30.4
12:25 1004 29.65 833 24.6 6 42.9 59 -1.3 29.7
12:30 1004 29.65 833 24.6 5.5 41.9 61 -1.4 29.5
12:35 1004 29.65 833 24.6 5 41 63 -1.4 29.5
12:40 1004 29.65 834 24.63 4.8 40.6 63 -1.7 29
12:45 1004 29.65 834 24.63 4.7 40.5 62 -1.9 28.5
12:50 1005 29.68 834 24.63 4.7 40.5 62 -2 28.4
12:55 1005 29.68 834 24.63 4.7 40.4 62 -1.9 28.6
13:00 1005 29.68 834 24.63 4.7 40.5 61 -2.1 28.3
13:05 1005 29.68 834 24.63 4.7 40.5 61 -2.2 28.1
13:10 1005 29.68 834 24.63 4.5 40.2 62 -2.2 28.1
13:15 1005 29.68 834 24.63 4.4 39.9 62 -2.3 27.9
13:20 1005 29.68 834 24.63 4 39.2 65 -2 28.3
13:25 1005 29.68 834 24.63 3.4 38.1 67 -2.2 28
13:30 1005 29.68 835 24.66 3.2 37.8 67 -2.3 27.8
13:35 1005 29.68 835 24.66 3.2 37.7 68 -2.1 28.2
13:40 1006 29.71 835 24.66 3.2 37.7 69 -2 28.4
13:45 1006 29.71 835 24.66 3.1 37.7 67 -2.3 27.9
13:50 1006 29.71 835 24.66 3.3 37.9 66 -2.5 27.5
13:55 1006 29.71 835 24.66 3.5 38.3 66 -2.4 27.8
14:00 1006 29.71 835 24.66 3.4 38.2 66 -2.4 27.7
14:05 1006 29.71 835 24.66 3.3 37.9 68 -2.2 28.1
14:10 1006 29.71 835 24.66 3.1 37.5 72 -1.5 29.2
14:15 1006 29.71 835 24.66 2.9 37.2 73 -1.5 29.3
14:20 1006 29.71 835 24.66 2.9 37.2 72 -1.6 29.1
14:25 1006 29.71 835 24.66 3 37.4 71 -1.7 28.9
14:30 1006 29.71 835 24.66 3.1 37.5 71 -1.7 28.9
14:35 1006 29.71 835 24.66 3 37.4 71 -1.7 28.9
14:40 1006 29.71 835 24.66 2.9 37.3 72 -1.7 28.9
14:45 1006 29.71 835 24.66 2.9 37.2 71 -1.9 28.5
14:50 1006 29.71 835 24.66 3 37.4 71 -1.8 28.8
14:55 1006 29.71 835 24.66 3.1 37.5 69 -2.1 28.2
15:00 1006 29.71 835 24.66 3.1 37.5 69 -2.1 28.2
15:05 1006 29.71 835 24.66 3.2 37.8 69 -1.9 28.5
15:10 1006 29.71 835 24.66 3.1 37.6 68 -2.1 28.2
15:15 1006 29.71 835 24.66 3.1 37.5 68 -2.3 27.9
15:20 1006 29.71 835 24.66 3.1 37.5 67 -2.5 27.5
15:25 1006 29.71 835 24.66 3.1 37.6 68 -2.3 27.8
15:30 1006 29.71 835 24.66 3.2 37.8 67 -2.3 27.8
15:35 1006 29.71 835 24.66 3.4 38.1 66 -2.2 28
15:40 1006 29.71 835 24.66 3.3 38 66 -2.4 27.7
15:45 1006 29.71 835 24.66 3.2 37.8 67 -2.4 27.7
15:50 1006 29.71 835 24.66 3.2 37.7 66 -2.5 27.6
15:55 1006 29.71 835 24.66 3.1 37.6 66 -2.7 27.1
16:00 1006 29.71 835 24.66 3.1 37.6 67 -2.5 27.5
16:05 1006 29.71 835 24.66 3.1 37.5 67 -2.5 27.4
16:10 1006 29.71 835 24.66 3 37.4 67 -2.5 27.5
16:15 1006 29.71 835 24.66 2.9 37.2 67 -2.6 27.4
16:20 1006 29.71 835 24.66 2.9 37.2 68 -2.5 27.5
16:25 1006 29.71 835 24.66 2.9 37.2 67 -2.6 27.4
16:30 1006 29.71 835 24.66 2.9 37.2 68 -2.5 27.5
16:35 1006 29.71 835 24.66 2.9 37.2 67 -2.7 27.2
16:40 1006 29.71 835 24.66 2.9 37.2 67 -2.6 27.4
16:45 1006 29.71 835 24.66 2.8 37.1 65 -3 26.6
16:50 1006 29.71 835 24.66 3 37.3 65 -2.9 26.8
16:55 1006 29.71 836 24.69 2.9 37.2 66 -2.8 27
17:00 1006 29.71 836 24.69 2.8 37.1 68 -2.6 27.4
17:05 1006 29.71 836 24.69 2.7 36.9 67 -2.8 27
17:10 1006 29.71 836 24.69 2.6 36.6 68 -2.8 26.9
17:15 1007 29.74 836 24.69 2.5 36.6 67 -2.9 26.8
17:20 1007 29.74 836 24.69 2.5 36.4 68 -2.8 26.9
17:25 1007 29.74 836 24.69 2.5 36.5 68 -2.8 26.9
17:30 1007 29.74 836 24.69 2.6 36.6 68 -2.7 27.1
17:35 1007 29.74 836 24.69 2.4 36.3 69 -2.7 27.2
17:40 1007 29.74 836 24.69 2.3 36.1 70 -2.6 27.3
17:45 1007 29.74 836 24.69 2.1 35.8 69 -3.1 26.5
17:50 1007 29.74 836 24.69 2.2 35.9 67 -3.3 26.1
17:55 1007 29.74 836 24.69 2.1 35.8 68 -3.1 26.4
18:00 1007 29.74 836 24.69 2 35.5 68 -3.3 26.1
18:05 1007 29.74 836 24.69 1.8 35.2 70 -3.1 26.4
18:10 1007 29.74 836 24.69 1.6 35 69 -3.3 26
18:15 1007 29.74 836 24.69 1.7 35.1 69 -3.4 25.9
18:20 1007 29.74 836 24.69 1.8 35.2 68 -3.5 25.8
18:25 1007 29.74 836 24.69 1.9 35.4 67 -3.6 25.5
18:30 1007 29.74 836 24.69 2.1 35.8 66 -3.6 25.5
18:35 1007 29.74 836 24.69 2.2 36 65 -3.7 25.3
18:40 1007 29.74 836 24.69 2.4 36.4 64 -3.7 25.4
18:45 1007 29.74 836 24.69 2.5 36.5 66 -3.3 26.1
18:50 1007 29.74 836 24.69 2.4 36.3 66 -3.2 26.2
18:55 1007 29.74 836 24.69 2.3 36.2 67 -3.2 26.2
19:00 1007 29.74 836 24.69 2.3 36.1 67 -3.1 26.3
19:05 1007 29.74 836 24.69 2.2 36 68 -3.1 26.4
19:10 1007 29.74 836 24.69 2 35.6 69 -3 26.6
19:15 1007 29.74 836 24.69 1.7 35 70 -3.3 26.1
19:20 1007 29.74 836 24.69 1.3 34.4 70 -3.5 25.7
19:25 1006 29.71 836 24.69 1.3 34.3 70 -3.5 25.7
19:30 1006 29.71 836 24.69 1.2 34.2 70 -3.6 25.5
19:35 1006 29.71 835 24.66 1.2 34.2 71 -3.5 25.7
19:40 1006 29.71 835 24.66 1.2 34.2 70 -3.6 25.5
19:45 1006 29.71 835 24.66 1.1 34 72 -3.4 25.8
19:50 1006 29.71 835 24.66 1 33.7 74 -3.1 26.4
19:55 1006 29.71 835 24.66 0.8 33.5 74 -3.3 26.1
20:00 1006 29.71 836 24.69 1 33.8 73 -3.3 26.1
20:05 1006 29.71 836 24.69 1.1 34 72 -3.3 26
20:10 1006 29.71 836 24.69 1.1 34 74 -3 26.5
20:15 1006 29.71 836 24.69 1 33.8 74 -3.1 26.5
20:20 1007 29.74 836 24.69 1 33.7 75 -2.9 26.8
20:25 1006 29.71 836 24.69 1 33.7 76 -2.8 26.9
20:30 1006 29.71 836 24.69 0.9 33.7 77 -2.7 27.1
20:35 1006 29.71 836 24.69 0.9 33.7 76 -2.8 26.9
20:40 1006 29.71 836 24.69 0.6 33.1 78 -2.8 26.9
20:45 1006 29.71 836 24.69 0.5 32.9 78 -2.9 26.8
20:50 1006 29.71 835 24.66 0.5 32.8 79 -2.9 26.9
20:55 1006 29.71 835 24.66 0.5 33 78 -2.9 26.8
21:00 1006 29.71 836 24.69 0.5 32.9 78 -2.8 26.9
21:05 1006 29.71 836 24.69 0.3 32.6 79 -2.9 26.8
21:10 1006 29.71 836 24.69 0.4 32.7 77 -3.1 26.4
21:15 1006 29.71 836 24.69 0.6 33.1 76 -3.2 26.3
21:20 1006 29.71 835 24.66 0.5 32.9 76 -3.2 26.2
21:25 1006 29.71 836 24.69 0.4 32.8 76 -3.3 26.1
21:30 1006 29.71 836 24.69 0.3 32.6 77 -3.3 26.1
21:35 1007 29.74 836 24.69 0.3 32.5 77 -3.2 26.2
21:40 1007 29.74 836 24.69 0.6 33.2 76 -3.1 26.4
21:45 1007 29.74 836 24.69 0.8 33.4 76 -3.1 26.5
21:50 1006 29.71 836 24.69 0.6 33 77 -3.1 26.4
21:55 1006 29.71 836 24.69 0.3 32.6 77 -3.3 26
22:00 1006 29.71 836 24.69 0.3 32.6 77 -3.3 26
22:05 1006 29.71 836 24.69 0.5 32.9 76 -3.3 26.1
22:10 1006 29.71 835 24.66 0.5 32.9 76 -3.3 26.1
22:15 1006 29.71 835 24.66 0.7 33.3 74 -3.3 26
22:20 1006 29.71 835 24.66 0.9 33.6 73 -3.4 25.9
22:25 1006 29.71 836 24.69 1.1 34 73 -3.2 26.2
22:30 1006 29.71 835 24.66 1.1 34.1 73 -3.2 26.2
22:35 1006 29.71 835 24.66 1 33.9 73 -3.3 26.1
22:40 1006 29.71 836 24.69 0.9 33.6 73 -3.4 26
22:45 1006 29.71 836 24.69 0.8 33.5 72 -3.6 25.6
22:50 1006 29.71 836 24.69 0.7 33.3 73 -3.5 25.6
22:55 1006 29.71 836 24.69 0.8 33.5 73 -3.6 25.6
23:00 1007 29.74 836 24.69 0.9 33.7 73 -3.5 25.8
23:05 1007 29.74 836 24.69 1 33.7 72 -3.5 25.7
23:10 1007 29.74 836 24.69 0.8 33.4 73 -3.6 25.6
23:15 1007 29.74 836 24.69 0.7 33.2 72 -3.7 25.3
23:20 1007 29.74 836 24.69 0.8 33.5 72 -3.6 25.5
23:25 1007 29.74 836 24.69 0.8 33.4 74 -3.4 25.9
23:30 1007 29.74 836 24.69 0.6 33.1 74 -3.5 25.7
23:35 1007 29.74 836 24.69 0.7 33.2 75 -3.3 26.1
23:40 1007 29.74 836 24.69 0.7 33.2 75 -3.3 26.1
23:45 1007 29.74 836 24.69 0.5 33 77 -3.1 26.4
23:50 1007 29.74 836 24.69 0.3 32.5 78 -3.2 26.3
23:55 1007 29.74 836 24.69 0.2 32.3 77 -3.3 26
24:00 1007 29.74 836 24.69 0.2 32.4 77 -3.3 26.1